^^
Grace C. Lehan Memorial Weather Station Historical Data
 
Daily Summary for April 22, 2021 Units:  English    Metric   Both
Daily Weekly Monthly Yearly
  Current: High: Low: Average:
Temperature: 45.4 °F 45.4 °F 34.2 °F 37.5 °F
Dew Point: 26.8 °F 30.6 °F 23 °F 26.5 °F
Humidity: 48% 82.8% 42.3% 65%
Wind Speed: 3.9mph 13.8mph 0mph 5.1mph
Wind Gust: 29mph 29mph - -
WindWNW - - WNW
Pressure: 29.71 in 29.74 in 29.65 in -
Precipitation: 0.00 in      
 
 
Tabular Data for April 22, 2021
Time Temperature Dew Point Pressure Wind Wind Speed Wind Gust Humidity Rainfall Rate (Hourly) solar
00:00 36.7 °F 26.4 °F 29.66 in WNW 4 mph 24 mph 66% 0.00 in 0 W/m2
00:09 36.5 °F 26.2 °F 29.67 in NW 8.8 mph 21 mph 66% 0.00 in 0 W/m2
00:14 36.4 °F 25.9 °F 29.66 in NW 9.3 mph 21 mph 65.3% 0.00 in 0 W/m2
00:19 36.4 °F 26.1 °F 29.67 in WNW 5.6 mph 21 mph 66% 0.00 in 0 W/m2
00:24 36.2 °F 25.8 °F 29.67 in WNW 8.8 mph 24 mph 65.5% 0.00 in 0 W/m2
00:29 36.2 °F 25.7 °F 29.67 in WNW 8.3 mph 24 mph 65.4% 0.00 in 0 W/m2
00:34 36 °F 25.2 °F 29.67 in NW 6.8 mph 24 mph 64.3% 0.00 in 0 W/m2
00:39 35.9 °F 25.1 °F 29.67 in NW 9.1 mph 19 mph 64.3% 0.00 in 0 W/m2
00:44 35.9 °F 24.6 °F 29.66 in WNW 9.7 mph 21 mph 63.1% 0.00 in 0 W/m2
00:49 35.8 °F 24.4 °F 29.66 in NW 6.9 mph 21 mph 63% 0.00 in 0 W/m2
00:54 35.7 °F 24.5 °F 29.66 in NW 4.9 mph 21 mph 63.5% 0.00 in 0 W/m2
00:59 35.6 °F 24.3 °F 29.66 in NW 6 mph 21 mph 63.2% 0.00 in 0 W/m2
01:04 35.5 °F 24.2 °F 29.66 in NW 4.5 mph 16 mph 63% 0.00 in 0 W/m2
01:09 35.4 °F 24.1 °F 29.66 in WNW 4.2 mph 16 mph 63% 0.00 in 0 W/m2
01:14 35.4 °F 24 °F 29.66 in WNW 5 mph 16 mph 63% 0.00 in 0 W/m2
01:19 35.3 °F 24 °F 29.66 in NW 5.3 mph 16 mph 63% 0.00 in 0 W/m2
01:24 35.2 °F 23.9 °F 29.66 in WNW 5.4 mph 16 mph 63% 0.00 in 0 W/m2
01:29 35.2 °F 24 °F 29.66 in NW 5.6 mph 16 mph 63.3% 0.00 in 0 W/m2
01:34 35.1 °F 24.1 °F 29.66 in NW 1.4 mph 16 mph 64% 0.00 in 0 W/m2
01:39 35 °F 24 °F 29.66 in NW 3.8 mph 11 mph 64% 0.00 in 0 W/m2
01:44 34.8 °F 23.7 °F 29.66 in NW 5.1 mph 12 mph 63.6% 0.00 in 0 W/m2
01:49 34.8 °F 23.5 °F 29.66 in WNW 5.2 mph 12 mph 63% 0.00 in 0 W/m2
01:54 34.7 °F 23.6 °F 29.66 in WNW 3.1 mph 12 mph 63.6% 0.00 in 0 W/m2
01:59 34.7 °F 23.4 °F 29.66 in NW 5.4 mph 12 mph 63.1% 0.00 in 0 W/m2
02:04 34.6 °F 23.5 °F 29.66 in NW 3.8 mph 12 mph 63.5% 0.00 in 0 W/m2
02:09 34.6 °F 23.7 °F 29.66 in NNW 3.4 mph 10 mph 64% 0.00 in 0 W/m2
02:14 34.5 °F 23.5 °F 29.66 in WNW 4.3 mph 11 mph 64% 0.00 in 0 W/m2
02:19 34.4 °F 23.6 °F 29.66 in WNW 1.2 mph 12 mph 64.4% 0.00 in 0 W/m2
02:24 34.3 °F 23.8 °F 29.66 in WNW 5 mph 12 mph 65% 0.00 in 0 W/m2
02:29 34.2 °F 23.7 °F 29.66 in WNW 5.2 mph 13 mph 65% 0.00 in 0 W/m2
02:34 34.2 °F 23.7 °F 29.66 in WNW 4.4 mph 13 mph 65% 0.00 in 0 W/m2
02:39 34.2 °F 23.9 °F 29.66 in WNW 4.4 mph 13 mph 65.5% 0.00 in 0 W/m2
02:44 34.2 °F 23.9 °F 29.66 in WNW 2.6 mph 13 mph 65.6% 0.00 in 0 W/m2
02:49 34.2 °F 23.9 °F 29.66 in NW 3.6 mph 13 mph 65.5% 0.00 in 0 W/m2
02:54 34.2 °F 24 °F 29.66 in NW 3.7 mph 13 mph 65.7% 0.00 in 0 W/m2
02:59 34.3 °F 23.8 °F 29.65 in WNW 5.8 mph 16 mph 65% 0.00 in 0 W/m2
03:04 34.4 °F 24 °F 29.66 in WNW 4.4 mph 16 mph 65.5% 0.00 in 0 W/m2
03:09 34.4 °F 24 °F 29.66 in WNW 6.1 mph 13 mph 65.1% 0.00 in 0 W/m2
03:14 34.6 °F 24.1 °F 29.66 in NW 5.9 mph 14 mph 65% 0.00 in 0 W/m2
03:19 34.7 °F 24.5 °F 29.65 in WNW 5.8 mph 20 mph 66% 0.00 in 0 W/m2
03:24 34.7 °F 24.5 °F 29.65 in WNW 5.2 mph 20 mph 66% 0.00 in 0 W/m2
03:29 34.7 °F 24.9 °F 29.66 in NW 2.5 mph 20 mph 66.9% 0.00 in 0 W/m2
03:34 34.7 °F 25.1 °F 29.66 in NW 2 mph 20 mph 67.4% 0.00 in 0 W/m2
03:39 34.8 °F 25.3 °F 29.66 in NW 0.2 mph 6 mph 68% 0.00 in 0 W/m2
03:44 34.8 °F 25.6 °F 29.66 in Calm   6 mph 68.8% 0.00 in 0 W/m2
03:49 34.8 °F 25.7 °F 29.66 in Calm   6 mph 69% 0.00 in 0 W/m2
03:54 34.8 °F 25.7 °F 29.66 in NW 0.2 mph 6 mph 69.1% 0.00 in 0 W/m2
03:59 34.8 °F 26.1 °F 29.66 in Calm   6 mph 70.1% 0.00 in 0 W/m2
04:09 34.8 °F 26.5 °F 29.66 in WNW 1 mph 6 mph 71.5% 0.00 in 0 W/m2
04:14 34.7 °F 26.6 °F 29.66 in WNW 0.9 mph 6 mph 72% 0.00 in 0 W/m2
04:19 34.7 °F 26.7 °F 29.66 in West 0.3 mph 6 mph 72.3% 0.00 in 0 W/m2
04:24 34.7 °F 27 °F 29.66 in WNW 1.2 mph 7 mph 73% 0.00 in 0 W/m2
04:30 34.9 °F 27.1 °F 29.66 in WNW 1 mph 7 mph 73% 0.00 in 0 W/m2
05:00 35.3 °F 27.5 °F 29.66 in West 1 mph 7 mph 73% 0.00 in 0 W/m2
05:30 35.4 °F 27.3 °F 29.67 in Calm   5 mph 72% 0.00 in 0 W/m2
06:00 35.5 °F 25.6 °F 29.67 in WSW 1 mph 10 mph 67% 0.00 in 0 W/m2
06:30 35.8 °F 25.6 °F 29.68 in WNW 3 mph 13 mph 66% 0.00 in 4 W/m2
07:00 35.7 °F 26.5 °F 29.70 in WNW 4 mph 12 mph 69% 0.00 in 17 W/m2
07:30 35.6 °F 28.1 °F 29.71 in WNW 2 mph 10 mph 74% 0.00 in 35 W/m2
08:04 35.9 °F 28.5 °F 29.71 in Calm   2 mph 74.2% 0.00 in 47 W/m2
08:09 35.9 °F 28.9 °F 29.72 in Calm   2 mph 75.4% 0.00 in 51 W/m2
08:14 36.1 °F 29.5 °F 29.72 in Calm   2 mph 76.7% 0.00 in 51 W/m2
08:19 36.2 °F 29.5 °F 29.72 in NNW 0.6 mph 5 mph 76.5% 0.00 in 74 W/m2
08:24 36.3 °F 29.6 °F 29.72 in North 1.2 mph 6 mph 76.3% 0.00 in 84 W/m2
08:29 36.3 °F 29.9 °F 29.72 in NNE 0.8 mph 6 mph 77.3% 0.00 in 98 W/m2
08:34 36.3 °F 30.4 °F 29.72 in North 0.8 mph 8 mph 79% 0.00 in 79 W/m2
08:39 36.1 °F 30.6 °F 29.73 in North 0.8 mph 8 mph 80% 0.00 in 88 W/m2
08:44 35.9 °F 30.6 °F 29.73 in NNW 2.6 mph 11 mph 80.7% 0.00 in 88 W/m2
08:49 35.6 °F 30.4 °F 29.73 in NW 4 mph 14 mph 81.2% 0.00 in 81 W/m2
08:54 35.1 °F 30.2 °F 29.73 in WNW 3.8 mph 14 mph 82% 0.00 in 128 W/m2
08:59 34.8 °F 30.1 °F 29.73 in NW 5.9 mph 18 mph 82.8% 0.00 in 153 W/m2
09:04 34.5 °F 29.3 °F 29.73 in NW 8.7 mph 18 mph 81.3% 0.00 in 206 W/m2
09:09 34.5 °F 28.9 °F 29.73 in WNW 7.1 mph 18 mph 79.8% 0.00 in 274 W/m2
09:14 34.9 °F 29.1 °F 29.73 in NW 6.6 mph 18 mph 78.8% 0.00 in 272 W/m2
09:19 35.5 °F 29.3 °F 29.73 in WNW 3.7 mph 18 mph 77.8% 0.00 in 413 W/m2
09:24 36.1 °F 29.2 °F 29.73 in WNW 8.7 mph 18 mph 75.7% 0.00 in 413 W/m2
09:29 36.5 °F 28.6 °F 29.74 in WNW 5.9 mph 18 mph 73% 0.00 in 179 W/m2
09:34 36.6 °F 28.5 °F 29.74 in WNW 6 mph 18 mph 72.2% 0.00 in 176 W/m2
09:39 36.4 °F 28.9 °F 29.74 in West 3.7 mph 15 mph 74% 0.00 in 229 W/m2
09:44 36.3 °F 29.3 °F 29.74 in West 3.3 mph 15 mph 75.3% 0.00 in 399 W/m2
09:49 36.7 °F 29.3 °F 29.74 in WNW 7.6 mph 17 mph 74.1% 0.00 in 438 W/m2
09:54 37.2 °F 28.5 °F 29.74 in NW 11.2 mph 22 mph 70.5% 0.00 in 445 W/m2
09:59 37.8 °F 28.4 °F 29.74 in WNW 9.5 mph 22 mph 68.5% 0.00 in 536 W/m2
10:04 38.7 °F 29.1 °F 29.74 in NW 9.7 mph 25 mph 68.1% 0.00 in 434 W/m2
10:09 39.2 °F 28.2 °F 29.74 in NW 11.9 mph 25 mph 64.5% 0.00 in 889 W/m2
10:14 39.6 °F 28.5 °F 29.74 in WNW 10.6 mph 25 mph 64.3% 0.00 in 1113 W/m2
10:19 39.9 °F 28 °F 29.74 in NW 8.7 mph 25 mph 62.1% 0.00 in 427 W/m2
10:24 39.7 °F 27.7 °F 29.74 in WNW 9.3 mph 25 mph 62% 0.00 in 343 W/m2
10:29 39.5 °F 28.2 °F 29.74 in NW 8.3 mph 25 mph 63.5% 0.00 in 898 W/m2
10:34 40.4 °F 28.9 °F 29.74 in WNW 4.8 mph 25 mph 63.4% 0.00 in 990 W/m2
10:39 41.5 °F 29.3 °F 29.74 in WNW 4.3 mph 16 mph 61.5% 0.00 in 1039 W/m2
10:44 41.9 °F 28.2 °F 29.73 in WNW 7.2 mph 19 mph 58.1% 0.00 in 411 W/m2
10:49 41.6 °F 27.5 °F 29.73 in WNW 6.6 mph 19 mph 57.1% 0.00 in 520 W/m2
10:54 41.4 °F 27.7 °F 29.74 in WNW 6.9 mph 19 mph 57.8% 0.00 in 520 W/m2
10:59 41.2 °F 27.1 °F 29.74 in NW 12.1 mph 21 mph 57% 0.00 in 425 W/m2
11:04 41.1 °F 27.5 °F 29.74 in NW 5.9 mph 21 mph 58.2% 0.00 in 1042 W/m2
11:09 42.1 °F 29 °F 29.74 in NW 8.6 mph 17 mph 59.5% 0.00 in 946 W/m2
11:14 42.7 °F 28.3 °F 29.73 in WNW 6.6 mph 19 mph 56.3% 0.00 in 1002 W/m2
11:19 43 °F 27.3 °F 29.73 in NW 10.3 mph 20 mph 53.6% 0.00 in 1002 W/m2
11:24 42.4 °F 26.3 °F 29.73 in NW 8.2 mph 20 mph 52.5% 0.00 in 186 W/m2
11:29 41.8 °F 26.5 °F 29.73 in WNW 4.3 mph 20 mph 54.3% 0.00 in 206 W/m2
11:34 42 °F 28.5 °F 29.73 in West 1.6 mph 20 mph 58.6% 0.00 in 258 W/m2
11:39 42.9 °F 30.6 °F 29.73 in WSW 2.8 mph 13 mph 61.7% 0.00 in 1187 W/m2
11:44 43.5 °F 29.6 °F 29.73 in West 3.8 mph 15 mph 57.7% 0.00 in 396 W/m2
11:49 43.7 °F 27.7 °F 29.73 in WNW 8.1 mph 23 mph 53% 0.00 in 396 W/m2
11:54 43.3 °F 26.1 °F 29.72 in WNW 9.6 mph 23 mph 50.4% 0.00 in 1213 W/m2
11:59 43.3 °F 26.2 °F 29.73 in West 8.4 mph 23 mph 50.6% 0.00 in 1213 W/m2
12:04 43.3 °F 24.4 °F 29.72 in NW 9 mph 9 mph 47% 0.00 in 336 W/m2
12:09 43.4 °F 25.6 °F 29.72 in NW 5.9 mph 15 mph 49.1% 0.00 in 570 W/m2
12:14 43.9 °F 25.8 °F 29.72 in WNW 9 mph 19 mph 48.6% 0.00 in 329 W/m2
12:19 44 °F 25.5 °F 29.72 in West 4.3 mph 19 mph 47.8% 0.00 in 306 W/m2
12:24 44.1 °F 27.2 °F 29.72 in West 3.3 mph 19 mph 51.1% 0.00 in 1132 W/m2
12:28 44.6 °F 27.9 °F 29.72 in WNW 4.3 mph 19 mph 51.5% 0.00 in 306 W/m2
12:34 44.8 °F 24.7 °F 29.72 in NW 13.8 mph 29 mph 44.9% 0.00 in 1092 W/m2
12:39 44.4 °F 23 °F 29.72 in WNW 12.6 mph 29 mph 42.3% 0.00 in 287 W/m2
12:44 44.2 °F 24.5 °F 29.72 in WNW 5.9 mph 29 mph 45.6% 0.00 in 1155 W/m2
12:49 44.4 °F 24.1 °F 29.72 in WNW 5.4 mph 29 mph 44.5% 0.00 in 362 W/m2
12:54 44.7 °F 25.1 °F 29.71 in West 6.6 mph 29 mph 45.8% 0.00 in 1172 W/m2
12:58 45.4 °F 26.8 °F 29.71 in WNW 3.9 mph 29 mph 48% 0.00 in 1197 W/m2
Hartford County Weather
Compliments of Weather Underground - 4 mb